Time;durP1;ratioP1;P1;durP2;ratioP2;P2;SDS_P1;SDS_P2;PMS_P1;PMS_P2;Temp;Humidity;BMP_temperature;BMP_pressure;BME280_temperature;BME280_humidity;BME280_pressure;Samples;Min_cycle;Max_cycle;Signal;HPM_P1;HPM_P2
2021/04/15 00:00:45;;;;;;;1999.90;999.90;;;18.20;91.90;;;;;;5029962;28;20150;-41
2021/04/15 00:03:21;;;;;;;1999.90;999.90;;;18.20;92.10;;;;;;5029647;28;20219;-41
2021/04/15 00:05:48;;;;;;;1999.90;999.90;;;18.20;92.20;;;;;;5029795;28;20516;-41
2021/04/15 00:08:17;;;;;;;1999.90;999.90;;;18.10;92.40;;;;;;5029639;28;20646;-41
2021/04/15 00:10:51;;;;;;;1999.90;999.90;;;18.10;92.40;;;;;;5029556;28;20166;-41
2021/04/15 00:13:40;;;;;;;1999.90;999.90;;;18.10;92.50;;;;;;5029618;28;20162;-44
2021/04/15 00:16:08;;;;;;;1999.90;999.90;;;18.10;92.50;;;;;;5029665;28;20201;-41
2021/04/15 00:18:35;;;;;;;1999.90;999.90;;;18.10;92.40;;;;;;5029303;28;20167;-41
2021/04/15 00:21:03;;;;;;;1999.90;999.90;;;18.10;92.20;;;;;;5029502;28;20977;-45
2021/04/15 00:23:31;;;;;;;1999.90;999.90;;;18.10;92.30;;;;;;5029386;28;20169;-43
2021/04/15 00:25:58;;;;;;;1999.90;999.90;;;18.10;92.30;;;;;;5029438;28;20189;-42
2021/04/15 00:28:25;;;;;;;1999.90;999.90;;;18.00;92.40;;;;;;5029411;28;20174;-42
2021/04/15 00:30:52;;;;;;;1999.90;999.90;;;18.10;92.20;;;;;;5029354;28;20177;-46
2021/04/15 00:33:21;;;;;;;1999.90;999.90;;;18.10;92.40;;;;;;5032748;28;20169;-41
2021/04/15 00:35:48;;;;;;;1999.90;999.90;;;18.10;92.10;;;;;;5032590;28;20217;-41
2021/04/15 00:38:16;;;;;;;1999.90;999.90;;;18.00;92.30;;;;;;5032707;28;20170;-42
2021/04/15 00:40:45;;;;;;;1999.90;999.90;;;17.90;92.60;;;;;;5032779;28;20166;-42
2021/04/15 00:43:13;;;;;;;1999.90;999.90;;;17.80;93.00;;;;;;5032721;28;20219;-41
2021/04/15 00:45:43;;;;;;;1999.90;999.90;;;17.80;93.00;;;;;;5033110;28;20502;-42
2021/04/15 00:48:29;;;;;;;1999.90;999.90;;;17.80;93.00;;;;;;5032681;28;20216;-42
2021/04/15 00:51:07;;;;;;;1999.90;999.90;;;17.80;92.90;;;;;;5032549;28;20557;-41
2021/04/15 00:53:37;;;;;;;1999.90;999.90;;;17.70;93.10;;;;;;5032560;28;20160;-45
2021/04/15 00:56:05;;;;;;;1999.90;999.90;;;17.70;93.20;;;;;;5032680;28;20558;-42
2021/04/15 00:58:32;;;;;;;1999.90;999.90;;;17.60;93.40;;;;;;5032408;28;20198;-41
2021/04/15 01:01:00;;;;;;;1999.90;999.90;;;17.70;93.20;;;;;;5032291;28;20541;-42
2021/04/15 01:03:27;;;;;;;1999.90;999.90;;;17.70;93.20;;;;;;5032340;28;20170;-41
2021/04/15 01:05:54;;;;;;;1999.90;999.90;;;17.70;93.40;;;;;;5032170;28;20174;-44
2021/04/15 01:08:21;;;;;;;1999.90;999.90;;;17.70;93.30;;;;;;5032283;28;20166;-41
2021/04/15 01:11:04;;;;;;;1999.90;999.90;;;17.70;93.30;;;;;;5032286;28;20623;-41
2021/04/15 01:13:46;;;;;;;1999.90;999.90;;;17.60;93.50;;;;;;5032263;28;20237;-41
2021/04/15 01:16:33;;;;;;;1999.90;999.90;;;17.60;93.90;;;;;;5032127;28;20230;-41
2021/04/15 01:19:17;;;;;;;1999.90;999.90;;;17.60;93.70;;;;;;5032033;28;20210;-42
2021/04/15 01:22:18;;;;;;;1999.90;999.90;;;17.60;93.90;;;;;;5032312;28;20763;-41
2021/04/15 01:25:18;;;;;;;1999.90;999.90;;;17.50;93.20;;;;;;5032102;28;20154;-41
2021/04/15 01:27:47;;;;;;;1999.90;999.90;;;17.50;92.90;;;;;;4978685;28;20180;-45
2021/04/15 01:30:42;;;;;;;1999.90;999.90;;;17.60;92.50;;;;;;5032026;28;20156;-41
2021/04/15 01:33:15;;;;;;;1999.90;999.90;;;17.60;92.00;;;;;;5032151;28;20193;-42
2021/04/15 01:35:50;;;;;;;1999.90;999.90;;;17.60;91.80;;;;;;5031792;28;20205;-42
2021/04/15 01:38:28;;;;;;;1999.90;999.90;;;17.60;91.80;;;;;;5032184;28;20174;-42
2021/04/15 01:41:06;;;;;;;1999.90;999.90;;;17.60;91.70;;;;;;5031801;28;20172;-41
2021/04/15 01:43:58;;;;;;;1999.90;999.90;;;17.60;91.10;;;;;;5030867;28;20625;-42
2021/04/15 01:46:30;;;;;;;1999.90;999.90;;;17.70;90.60;;;;;;5031257;28;20582;-41
2021/04/15 01:49:00;;;;;;;1999.90;999.90;;;17.60;89.70;;;;;;5031459;28;20154;-42
2021/04/15 01:51:34;;;;;;;1999.90;999.90;;;17.60;89.10;;;;;;5031348;28;20166;-43
2021/04/15 01:54:06;;;;;;;1999.90;999.90;;;17.60;88.80;;;;;;5031391;28;20592;-41
2021/04/15 01:56:53;;;;;;;1999.90;999.90;;;17.50;88.70;;;;;;5031229;28;20277;-43
2021/04/15 01:59:30;;;;;;;1999.90;999.90;;;17.60;88.40;;;;;;5031558;28;20239;-43
2021/04/15 02:02:04;;;;;;;1999.90;999.90;;;17.60;88.30;;;;;;5031483;28;20150;-43
2021/04/15 02:04:39;;;;;;;1999.90;999.90;;;17.50;88.10;;;;;;5031411;28;20158;-42
2021/04/15 02:07:11;;;;;;;1999.90;999.90;;;17.50;89.50;;;;;;5031418;28;20146;-42
2021/04/15 02:09:45;;;;;;;1999.90;999.90;;;17.50;91.20;;;;;;5031375;28;20253;-42
2021/04/15 02:12:17;;;;;;;1999.90;999.90;;;17.40;91.90;;;;;;5031258;28;20158;-43
2021/04/15 02:14:48;;;;;;;1999.90;999.90;;;17.40;92.40;;;;;;5031204;28;20554;-41
2021/04/15 02:17:16;;;;;;;1999.90;999.90;;;17.40;93.00;;;;;;5031267;28;20206;-45
2021/04/15 02:19:44;;;;;;;1999.90;999.90;;;17.20;93.30;;;;;;5031010;28;20214;-41
2021/04/15 02:22:20;;;;;;;1999.90;999.90;;;17.20;93.50;;;;;;5031023;28;20174;-41
2021/04/15 02:25:05;;;;;;;1999.90;999.90;;;17.20;93.60;;;;;;5031226;28;20182;-41
2021/04/15 02:27:43;;;;;;;1999.90;999.90;;;17.20;93.80;;;;;;5031128;28;20166;-42
2021/04/15 02:30:14;;;;;;;1999.90;999.90;;;17.20;93.90;;;;;;5030985;28;20169;-42
2021/04/15 02:32:47;;;;;;;1999.90;999.90;;;17.20;94.00;;;;;;5030923;28;20296;-41
2021/04/15 02:35:36;;;;;;;1999.90;999.90;;;17.10;94.10;;;;;;5030816;28;20151;-42
2021/04/15 02:38:04;;;;;;;1999.90;999.90;;;17.10;94.00;;;;;;5030725;28;20181;-41
2021/04/15 02:40:37;;;;;;;1999.90;999.90;;;17.10;94.10;;;;;;5030659;28;20257;-42
2021/04/15 02:43:22;;;;;;;1999.90;999.90;;;17.10;93.90;;;;;;5030852;28;20233;-41
2021/04/15 02:45:54;;;;;;;1999.90;999.90;;;17.10;93.80;;;;;;5030875;28;20162;-42
2021/04/15 02:48:30;;;;;;;1999.90;999.90;;;17.20;93.70;;;;;;5030925;28;20162;-41
2021/04/15 02:51:04;;;;;;;1999.90;999.90;;;17.10;93.80;;;;;;5030652;28;20252;-42
2021/04/15 02:54:11;;;;;;;1999.90;999.90;;;17.10;93.80;;;;;;5030667;28;20203;-41
2021/04/15 02:56:44;;;;;;;1999.90;999.90;;;17.10;94.00;;;;;;5030332;28;20213;-41
2021/04/15 02:59:31;;;;;;;1999.90;999.90;;;17.00;94.10;;;;;;5030601;28;20166;-42
2021/04/15 03:02:07;;;;;;;1999.90;999.90;;;17.00;94.20;;;;;;5030616;28;20249;-41
2021/04/15 03:04:37;;;;;;;1999.90;999.90;;;17.00;94.00;;;;;;5030536;28;20150;-42
2021/04/15 03:07:05;;;;;;;1999.90;999.90;;;17.00;93.90;;;;;;5030367;28;20166;-42
2021/04/15 03:09:35;;;;;;;1999.90;999.90;;;16.90;94.10;;;;;;5030464;28;20551;-42
2021/04/15 03:12:14;;;;;;;1999.90;999.90;;;17.10;93.90;;;;;;5030307;28;20253;-41
2021/04/15 03:15:17;;;;;;;1999.90;999.90;;;17.00;93.80;;;;;;5030274;28;20161;-41
2021/04/15 03:17:50;;;;;;;1999.90;999.90;;;16.90;93.80;;;;;;5041082;28;20525;-41
2021/04/15 03:20:51;;;;;;;1999.90;999.90;;;16.80;94.00;;;;;;5030111;28;20605;-42
2021/04/15 03:23:34;;;;;;;1999.90;999.90;;;16.70;94.30;;;;;;4996984;28;20189;-41
2021/04/15 03:26:19;;;;;;;1999.90;999.90;;;16.70;94.40;;;;;;5030242;28;20168;-42
2021/04/15 03:29:01;;;;;;;1999.90;999.90;;;16.70;94.30;;;;;;5030043;28;20169;-42
2021/04/15 03:31:31;;;;;;;1999.90;999.90;;;16.80;94.20;;;;;;5029902;28;20165;-44
2021/04/15 03:34:07;;;;;;;1999.90;999.90;;;16.80;94.00;;;;;;5029940;28;20266;-41
2021/04/15 03:36:40;;;;;;;1999.90;999.90;;;16.80;93.70;;;;;;5029857;28;20197;-41
2021/04/15 03:39:09;;;;;;;1999.90;999.90;;;16.90;93.80;;;;;;5030019;28;20166;-40
2021/04/15 03:41:45;;;;;;;1999.90;999.90;;;16.90;93.60;;;;;;5029948;28;20185;-42
2021/04/15 03:44:41;;;;;;;1999.90;999.90;;;16.90;93.20;;;;;;5029807;28;20170;-41
2021/04/15 03:47:12;;;;;;;1999.90;999.90;;;16.90;93.20;;;;;;5032325;28;20186;-41
2021/04/15 03:49:42;;;;;;;1999.90;999.90;;;17.00;93.20;;;;;;5029825;28;20166;-44
2021/04/15 03:52:42;;;;;;;1999.90;999.90;;;17.00;92.90;;;;;;5030018;28;20181;-43
2021/04/15 03:55:24;;;;;;;1999.90;999.90;;;17.10;92.70;;;;;;5029708;28;20163;-42
2021/04/15 03:57:54;;;;;;;1999.90;999.90;;;17.20;92.40;;;;;;5029752;28;20166;-42
2021/04/15 04:00:48;;;;;;;1999.90;999.90;;;17.20;92.40;;;;;;5030046;28;20630;-42
2021/04/15 04:03:20;;;;;;;1999.90;999.90;;;17.30;92.40;;;;;;5031698;28;20652;-42
2021/04/15 04:05:59;;;;;;;1999.90;999.90;;;17.40;92.30;;;;;;5029511;28;20530;-44
2021/04/15 04:08:35;;;;;;;1999.90;999.90;;;17.50;92.20;;;;;;5033297;28;20222;-42
2021/04/15 04:11:03;;;;;;;1999.90;999.90;;;17.50;92.20;;;;;;5033209;28;20162;-42
2021/04/15 04:13:40;;;;;;;1999.90;999.90;;;17.40;92.10;;;;;;5033165;28;20170;-45
2021/04/15 04:16:16;;;;;;;1999.90;999.90;;;17.60;91.90;;;;;;5032887;28;20201;-41
2021/04/15 04:19:12;;;;;;;1999.90;999.90;;;17.60;91.30;;;;;;5032831;28;20229;-41
2021/04/15 04:21:57;;;;;;;1999.90;999.90;;;17.50;90.60;;;;;;5036106;28;20548;-42
2021/04/15 04:24:28;;;;;;;1999.90;999.90;;;17.40;90.90;;;;;;5032831;28;20170;-47
2021/04/15 04:27:02;;;;;;;1999.90;999.90;;;17.40;91.40;;;;;;5032754;28;20169;-42
2021/04/15 04:29:51;;;;;;;1999.90;999.90;;;17.50;91.10;;;;;;5032998;28;20525;-42
2021/04/15 04:32:22;;;;;;;1999.90;999.90;;;17.50;90.70;;;;;;5032719;28;20660;-42
2021/04/15 04:34:55;;;;;;;1999.90;999.90;;;17.50;90.90;;;;;;5032704;28;20162;-41
2021/04/15 04:37:44;;;;;;;1999.90;999.90;;;17.50;91.10;;;;;;5032620;28;20292;-43
2021/04/15 04:40:22;;;;;;;1999.90;999.90;;;17.50;91.00;;;;;;5032523;28;20228;-50
2021/04/15 04:43:06;;;;;;;1999.90;999.90;;;17.50;91.20;;;;;;5032699;28;20517;-43
2021/04/15 04:45:33;;;;;;;1999.90;999.90;;;17.50;90.90;;;;;;5032616;28;20162;-44
2021/04/15 04:48:18;;;;;;;1999.90;999.90;;;17.50;90.30;;;;;;5032695;28;20170;-41
2021/04/15 04:50:50;;;;;;;1999.90;999.90;;;17.60;90.30;;;;;;5032511;28;20154;-41
2021/04/15 04:53:29;;;;;;;1999.90;999.90;;;17.60;90.30;;;;;;5032543;28;20169;-42
2021/04/15 04:56:21;;;;;;;1999.90;999.90;;;17.50;90.30;;;;;;5032431;28;20681;-42
2021/04/15 04:59:02;;;;;;;1999.90;999.90;;;17.40;90.20;;;;;;5032377;28;20178;-41
2021/04/15 05:01:29;;;;;;;1999.90;999.90;;;17.40;89.60;;;;;;5032389;28;20165;-44
2021/04/15 05:04:01;;;;;;;1999.90;999.90;;;17.30;89.90;;;;;;5032215;28;20178;-44
2021/04/15 05:06:33;;;;;;;1999.90;999.90;;;17.30;90.00;;;;;;5032118;28;20234;-42
2021/04/15 05:09:14;;;;;;;1999.90;999.90;;;17.20;90.20;;;;;;5032223;28;20681;-41
2021/04/15 05:11:44;;;;;;;1999.90;999.90;;;17.10;90.50;;;;;;5032217;28;20230;-41
2021/04/15 05:14:14;;;;;;;1999.90;999.90;;;17.20;90.80;;;;;;5032008;28;20180;-42
2021/04/15 05:17:19;;;;;;;1999.90;999.90;;;17.20;91.10;;;;;;5031753;28;20209;-39
2021/04/15 05:19:46;;;;;;;1999.90;999.90;;;17.20;91.40;;;;;;5030996;28;20557;-43
2021/04/15 05:22:23;;;;;;;1999.90;999.90;;;17.10;92.20;;;;;;5031899;28;20731;-41
2021/04/15 05:24:59;;;;;;;1999.90;999.90;;;17.10;92.60;;;;;;5031803;28;20185;-42
2021/04/15 05:27:27;;;;;;;1999.90;999.90;;;17.10;92.70;;;;;;5031855;28;20188;-43
2021/04/15 05:30:06;;;;;;;1999.90;999.90;;;17.10;92.90;;;;;;5031668;28;20299;-43
2021/04/15 05:32:34;;;;;;;1999.90;999.90;;;17.10;93.10;;;;;;5031955;28;20233;-45
2021/04/15 05:35:01;;;;;;;1999.90;999.90;;;17.10;93.10;;;;;;5031592;28;20173;-43
2021/04/15 05:37:29;;;;;;;1999.90;999.90;;;17.20;93.20;;;;;;5031651;28;20260;-43
2021/04/15 05:39:58;;;;;;;1999.90;999.90;;;17.20;93.30;;;;;;5031648;28;20174;-43
2021/04/15 05:42:55;;;;;;;1999.90;999.90;;;17.30;93.20;;;;;;5031554;28;20231;-44
2021/04/15 05:45:26;;;;;;;1999.90;999.90;;;17.30;93.30;;;;;;5032347;28;20280;-43
2021/04/15 05:48:12;;;;;;;1999.90;999.90;;;17.30;93.20;;;;;;5031421;28;20158;-43
2021/04/15 05:50:50;;;;;;;1999.90;999.90;;;17.30;93.00;;;;;;5031292;28;20166;-41
2021/04/15 05:53:37;;;;;;;1999.90;999.90;;;17.40;93.00;;;;;;5031170;28;20155;-43
2021/04/15 05:56:19;;;;;;;1999.90;999.90;;;17.50;92.90;;;;;;5031201;28;20569;-41
2021/04/15 05:59:19;;;;;;;1999.90;999.90;;;17.70;92.50;;;;;;5031177;28;20492;-43
2021/04/15 06:01:48;;;;;;;1999.90;999.90;;;17.70;92.30;;;;;;5030639;28;20619;-47
2021/04/15 06:04:28;;;;;;;1999.90;999.90;;;18.00;90.90;;;;;;5030105;28;20210;-60
2021/04/15 06:06:55;;;;;;;1999.90;999.90;;;18.10;90.90;;;;;;5031206;28;20168;-61
2021/04/15 06:09:22;;;;;;;1999.90;999.90;;;18.40;90.30;;;;;;5031010;28;20253;-61
2021/04/15 06:11:56;;;;;;;1999.90;999.90;;;18.70;90.00;;;;;;5030894;28;20174;-58
2021/04/15 06:14:37;;;;;;;1999.90;999.90;;;18.90;88.90;;;;;;5064443;27;20596;-44
2021/04/15 06:17:28;;;;;;;1999.90;999.90;;;19.10;87.60;;;;;;5036945;27;20194;-47
2021/04/15 06:20:15;;;;;;;1999.90;999.90;;;19.10;89.20;;;;;;5030413;28;20695;-44
2021/04/15 06:22:46;;;;;;;1999.90;999.90;;;19.10;89.60;;;;;;5030704;28;20158;-45
2021/04/15 06:25:21;;;;;;;1999.90;999.90;;;19.10;89.20;;;;;;5030362;28;20612;-49
2021/04/15 06:27:49;;;;;;;1999.90;999.90;;;19.10;89.00;;;;;;5030334;28;20181;-56
2021/04/15 06:30:31;;;;;;;1999.90;999.90;;;19.30;88.30;;;;;;5030024;28;20166;-49
2021/04/15 06:33:02;;;;;;;1999.90;999.90;;;19.40;87.70;;;;;;5030127;28;20193;-54
2021/04/15 06:35:32;;;;;;;1999.90;999.90;;;19.70;87.00;;;;;;5030413;28;20182;-55
2021/04/15 06:37:58;;;;;;;1999.90;999.90;;;19.80;86.00;;;;;;5030219;28;20189;-59
2021/04/15 06:40:34;;;;;;;1999.90;999.90;;;19.90;84.40;;;;;;5030351;28;20193;-63
2021/04/15 06:43:43;;;;;;;1999.90;999.90;;;20.10;83.80;;;;;;5030099;28;20178;-62
2021/04/15 06:46:38;;;;;;;1999.90;999.90;;;20.20;84.00;;;;;;5030544;28;20151;-53
2021/04/15 06:49:08;;;;;;;1999.90;999.90;;;20.40;84.20;;;;;;5029963;28;20158;-50
2021/04/15 06:51:43;;;;;;;1999.90;999.90;;;20.60;82.10;;;;;;5030106;28;20246;-45
2021/04/15 06:54:31;;;;;;;1999.90;999.90;;;20.80;81.40;;;;;;5029930;28;20181;-48
2021/04/15 06:56:58;;;;;;;1999.90;999.90;;;20.90;81.10;;;;;;5029625;28;20220;-53
2021/04/15 06:59:53;;;;;;;1999.90;999.90;;;21.00;79.10;;;;;;5030128;28;20162;-49
2021/04/15 07:02:53;;;;;;;1999.90;999.90;;;21.10;78.60;;;;;;5029628;28;20182;-59
2021/04/15 07:05:31;;;;;;;1999.90;999.90;;;21.20;77.40;;;;;;5030057;28;20159;-55
2021/04/15 07:08:21;;;;;;;1999.90;999.90;;;21.30;76.30;;;;;;5030108;28;20162;-59
2021/04/15 07:11:07;;;;;;;1999.90;999.90;;;21.40;75.70;;;;;;5040183;28;20659;-53
2021/04/15 07:13:46;;;;;;;1999.90;999.90;;;21.50;74.70;;;;;;5029400;28;20238;-59
2021/04/15 07:16:52;;;;;;;1999.90;999.90;;;21.60;73.50;;;;;;5029830;28;20214;-59
2021/04/15 07:20:00;;;;;;;1999.90;999.90;;;21.70;72.40;;;;;;5039584;28;20679;-63
2021/04/15 07:22:55;;;;;;;1999.90;999.90;;;21.90;72.10;;;;;;5029441;28;20166;-60
2021/04/15 07:25:40;;;;;;;1999.90;999.90;;;22.00;70.90;;;;;;5029856;28;20169;-49
2021/04/15 07:28:22;;;;;;;1999.90;999.90;;;22.40;72.10;;;;;;5029648;28;20185;-58
2021/04/15 07:31:14;;;;;;;1999.90;999.90;;;22.60;68.60;;;;;;5029357;28;20166;-57
2021/04/15 07:34:11;;;;;;;1999.90;999.90;;;22.70;68.10;;;;;;5029829;28;20154;-51
2021/04/15 07:37:00;;;;;;;1999.90;999.90;;;22.80;67.90;;;;;;5029048;28;20206;-56
2021/04/15 07:39:55;;;;;;;1999.90;999.90;;;22.90;67.20;;;;;;5053759;28;20247;-58
2021/04/15 07:42:43;;;;;;;1999.90;999.90;;;23.10;66.10;;;;;;5037414;27;20537;-57
2021/04/15 07:45:49;;;;;;;1999.90;999.90;;;23.10;65.60;;;;;;5030586;28;20252;-49
2021/04/15 07:48:28;;;;;;;1999.90;999.90;;;23.30;66.30;;;;;;5038234;28;20200;-49
2021/04/15 07:51:16;;;;;;;1999.90;999.90;;;23.60;64.70;;;;;;5029481;28;20180;-45
2021/04/15 07:53:57;;;;;;;1999.90;999.90;;;23.80;63.20;;;;;;5029581;28;20165;-57
2021/04/15 07:57:02;;;;;;;1999.90;999.90;;;23.90;62.50;;;;;;5028349;28;20225;-58
2021/04/15 07:59:44;;;;;;;1999.90;999.90;;;24.10;61.60;;;;;;5035807;28;20170;-62
2021/04/15 08:02:30;;;;;;;1999.90;999.90;;;24.30;60.00;;;;;;5029285;28;20162;-61
2021/04/15 08:05:21;;;;;;;1999.90;999.90;;;24.50;59.10;;;;;;5029334;28;20166;-62
2021/04/15 08:08:02;;;;;;;1999.90;999.90;;;24.70;58.80;;;;;;5029215;28;20162;-45
2021/04/15 08:10:44;;;;;;;1999.90;999.90;;;24.90;58.00;;;;;;5026913;28;20173;-46
2021/04/15 08:13:40;;;;;;;1999.90;999.90;;;25.10;57.70;;;;;;5029063;28;20536;-58
2021/04/15 08:16:39;;;;;;;1999.90;999.90;;;25.30;57.20;;;;;;5036251;28;20202;-56
2021/04/15 08:19:36;;;;;;;1999.90;999.90;;;25.80;56.70;;;;;;5028982;28;20250;-54
2021/04/15 08:22:39;;;;;;;1999.90;999.90;;;26.30;55.80;;;;;;5018892;28;20718;-55
2021/04/15 08:25:20;;;;;;;1999.90;999.90;;;26.20;53.20;;;;;;5009031;28;20170;-58
2021/04/15 08:28:16;;;;;;;1999.90;999.90;;;26.50;53.80;;;;;;5026817;28;20169;-59
2021/04/15 08:31:07;;;;;;;1999.90;999.90;;;27.10;52.30;;;;;;5009148;28;20147;-43
2021/04/15 08:33:52;;;;;;;1999.90;999.90;;;27.40;50.70;;;;;;5009014;28;20171;-53
2021/04/15 08:36:28;;;;;;;1999.90;999.90;;;27.60;50.20;;;;;;5008829;28;20182;-44
2021/04/15 08:39:30;;;;;;;1999.90;999.90;;;27.70;50.20;;;;;;5011896;28;20200;-51
2021/04/15 08:42:47;;;;;;;1999.90;999.90;;;27.70;49.60;;;;;;5028120;28;20189;-44
2021/04/15 08:45:38;;;;;;;1999.90;999.90;;;28.10;48.00;;;;;;5050410;28;20186;-46
2021/04/15 08:48:11;;;;;;;1999.90;999.90;;;28.70;47.20;;;;;;5011838;28;20206;-47
2021/04/15 08:50:50;;;;;;;1999.90;999.90;;;29.00;46.70;;;;;;5072994;28;20259;-49
2021/04/15 08:53:53;;;;;;;1999.90;999.90;;;29.40;45.50;;;;;;5013458;28;20177;-54
2021/04/15 08:56:26;;;;;;;1999.90;999.90;;;29.70;44.20;;;;;;5031425;28;20200;-53
2021/04/15 08:59:21;;;;;;;1999.90;999.90;;;30.30;42.80;;;;;;5031150;28;20512;-51
2021/04/15 09:02:11;;;;;;;1999.90;999.90;;;30.30;42.00;;;;;;5051788;28;20150;-62
2021/04/15 09:05:02;;;;;;;1999.90;999.90;;;30.30;42.40;;;;;;5040430;28;20177;-58
2021/04/15 09:07:57;;;;;;;1999.90;999.90;;;30.00;41.60;;;;;;5031289;28;20166;-59
2021/04/15 09:10:46;;;;;;;1999.90;999.90;;;30.60;41.40;;;;;;5032062;28;20611;-58
2021/04/15 09:13:25;;;;;;;1999.90;999.90;;;30.90;40.60;;;;;;5030393;28;20182;-45
2021/04/15 09:16:29;;;;;;;1999.90;999.90;;;30.60;40.20;;;;;;5031633;28;20186;-44
2021/04/15 09:19:27;;;;;;;1999.90;999.90;;;30.20;39.90;;;;;;5031368;28;20213;-39
2021/04/15 09:21:59;;;;;;;1999.90;999.90;;;30.30;40.00;;;;;;5028663;28;20170;-58
2021/04/15 09:24:43;;;;;;;1999.90;999.90;;;30.60;39.40;;;;;;5051251;28;20160;-50
2021/04/15 09:27:31;;;;;;;1999.90;999.90;;;30.60;40.50;;;;;;5049857;28;20627;-52
2021/04/15 09:30:32;;;;;;;1999.90;999.90;;;31.10;39.30;;;;;;5039200;28;20516;-44
2021/04/15 09:33:20;;;;;;;1999.90;999.90;;;31.60;37.80;;;;;;5031450;28;20154;-43
2021/04/15 09:36:19;;;;;;;1999.90;999.90;;;31.60;37.10;;;;;;5031360;28;20212;-59
2021/04/15 09:39:03;;;;;;;1999.90;999.90;;;31.60;36.80;;;;;;5030974;28;20232;-50
2021/04/15 09:41:41;;;;;;;1999.90;999.90;;;31.70;37.00;;;;;;5030469;28;20170;-49
2021/04/15 09:44:35;;;;;;;1999.90;999.90;;;31.90;36.00;;;;;;5046462;28;20538;-49
2021/04/15 09:47:43;;;;;;;1999.90;999.90;;;32.00;35.70;;;;;;5028919;28;20222;-52
2021/04/15 09:50:49;;;;;;;1999.90;999.90;;;32.40;35.00;;;;;;5066735;28;20173;-45
2021/04/15 09:53:36;;;;;;;1999.90;999.90;;;32.60;34.60;;;;;;5029426;28;20193;-51
2021/04/15 09:56:21;;;;;;;1999.90;999.90;;;32.30;32.20;;;;;;5032818;28;20297;-52
2021/04/15 09:59:00;;;;;;;1999.90;999.90;;;31.90;32.80;;;;;;5040716;27;20161;-49
2021/04/15 10:01:39;;;;;;;1999.90;999.90;;;31.80;32.80;;;;;;5051012;28;20158;-51
2021/04/15 10:04:13;;;;;;;1999.90;999.90;;;32.10;32.20;;;;;;5033871;28;20261;-55
2021/04/15 10:06:53;;;;;;;1999.90;999.90;;;32.10;31.90;;;;;;5030791;28;20516;-50
2021/04/15 10:09:28;;;;;;;1999.90;999.90;;;32.10;32.30;;;;;;5030450;28;20173;-50
2021/04/15 10:12:35;;;;;;;1999.90;999.90;;;32.00;32.40;;;;;;5030788;28;20260;-53
2021/04/15 10:15:10;;;;;;;1999.90;999.90;;;31.90;32.10;;;;;;5040942;28;20193;-57
2021/04/15 10:18:17;;;;;;;1999.90;999.90;;;31.90;32.40;;;;;;5030410;28;20272;-54
2021/04/15 10:21:20;;;;;;;1999.90;999.90;;;31.90;31.60;;;;;;5029633;28;20228;-58
2021/04/15 10:23:59;;;;;;;1999.90;999.90;;;31.90;31.70;;;;;;5030403;28;20170;-49
2021/04/15 10:26:44;;;;;;;1999.90;999.90;;;31.90;31.70;;;;;;5030328;28;20162;-52
2021/04/15 10:29:11;;;;;;;1999.90;999.90;;;31.90;32.00;;;;;;5030474;28;20158;-52
2021/04/15 10:32:30;;;;;;;1999.90;999.90;;;31.70;32.00;;;;;;5030260;28;20278;-53
2021/04/15 10:35:27;;;;;;;1999.90;999.90;;;31.60;31.90;;;;;;4960029;28;20211;-46
2021/04/15 10:38:31;;;;;;;1999.90;999.90;;;31.70;32.20;;;;;;5030113;28;20186;-50
2021/04/15 10:41:22;;;;;;;1999.90;999.90;;;31.60;31.90;;;;;;5029939;28;20181;-54
2021/04/15 10:44:09;;;;;;;1999.90;999.90;;;31.60;31.80;;;;;;5030028;28;20162;-53
2021/04/15 10:46:36;;;;;;;1999.90;999.90;;;31.60;32.30;;;;;;5030258;28;20165;-56
2021/04/15 10:49:50;;;;;;;1999.90;999.90;;;31.60;32.60;;;;;;5030110;28;20181;-57
2021/04/15 10:52:52;;;;;;;1999.90;999.90;;;31.80;31.90;;;;;;5034156;28;20186;-55
2021/04/15 10:55:34;;;;;;;1999.90;999.90;;;31.90;31.90;;;;;;5050567;28;20180;-56
2021/04/15 10:58:20;;;;;;;1999.90;999.90;;;31.90;31.90;;;;;;5032301;28;20204;-50
2021/04/15 11:00:48;;;;;;;1999.90;999.90;;;32.10;31.70;;;;;;5030450;28;20249;-51
2021/04/15 11:03:25;;;;;;;1999.90;999.90;;;32.20;32.10;;;;;;5030353;28;20182;-59
2021/04/15 11:05:54;;;;;;;1999.90;999.90;;;32.30;31.60;;;;;;5028311;28;20174;-57
2021/04/15 11:08:31;;;;;;;1999.90;999.90;;;32.30;31.80;;;;;;5028620;28;20177;-53
2021/04/15 11:11:27;;;;;;;1999.90;999.90;;;32.00;32.10;;;;;;5029707;28;20166;-53
2021/04/15 11:14:05;;;;;;;1999.90;999.90;;;32.00;32.40;;;;;;5029999;28;20795;-59
2021/04/15 11:16:34;;;;;;;1999.90;999.90;;;32.20;31.70;;;;;;5028420;28;20213;-53
2021/04/15 11:19:12;;;;;;;1999.90;999.90;;;32.30;31.80;;;;;;5029688;28;20264;-59
2021/04/15 11:21:41;;;;;;;1999.90;999.90;;;32.30;31.50;;;;;;5029292;28;20177;-57
2021/04/15 11:24:42;;;;;;;1999.90;999.90;;;32.10;31.70;;;;;;5030086;28;20512;-47
2021/04/15 11:27:09;;;;;;;1999.90;999.90;;;31.80;32.40;;;;;;5040636;28;20220;-56
2021/04/15 11:29:44;;;;;;;1999.90;999.90;;;31.80;32.10;;;;;;5028325;28;20517;-57
2021/04/15 11:32:46;;;;;;;1999.90;999.90;;;31.90;32.20;;;;;;5029741;28;20153;-44
2021/04/15 11:35:21;;;;;;;1999.90;999.90;;;31.80;32.30;;;;;;5049550;28;20717;-47
2021/04/15 11:37:51;;;;;;;1999.90;999.90;;;31.70;32.60;;;;;;5032087;28;20683;-56
2021/04/15 11:40:32;;;;;;;1999.90;999.90;;;31.90;32.50;;;;;;5029533;28;20245;-50
2021/04/15 11:43:21;;;;;;;1999.90;999.90;;;32.00;32.50;;;;;;5027889;28;20222;-55
2021/04/15 11:45:48;;;;;;;1999.90;999.90;;;32.20;32.10;;;;;;5028805;28;20242;-49
2021/04/15 11:48:25;;;;;;;1999.90;999.90;;;32.10;32.50;;;;;;5029078;28;20220;-52
2021/04/15 11:51:11;;;;;;;1999.90;999.90;;;32.00;32.70;;;;;;5028905;28;20253;-51
2021/04/15 11:53:41;;;;;;;1999.90;999.90;;;32.10;32.60;;;;;;5029312;28;20165;-54
2021/04/15 11:56:24;;;;;;;1999.90;999.90;;;32.10;32.30;;;;;;5029098;28;20254;-54
2021/04/15 11:58:54;;;;;;;1999.90;999.90;;;32.30;32.00;;;;;;5028791;28;20505;-57
2021/04/15 12:01:30;;;;;;;1999.90;999.90;;;32.30;31.50;;;;;;5028945;28;20182;-48
2021/04/15 12:04:05;;;;;;;1999.90;999.90;;;32.50;31.70;;;;;;5031537;28;20259;-48
2021/04/15 12:06:40;;;;;;;1999.90;999.90;;;32.60;31.60;;;;;;5029859;28;20169;-59
2021/04/15 12:09:11;;;;;;;1999.90;999.90;;;32.50;31.80;;;;;;5033103;28;20194;-48
2021/04/15 12:11:50;;;;;;;1999.90;999.90;;;32.20;31.90;;;;;;5024046;28;20647;-47
2021/04/15 12:14:17;;;;;;;1999.90;999.90;;;32.20;32.00;;;;;;5028910;28;20237;-50
2021/04/15 12:17:10;;;;;;;1999.90;999.90;;;32.20;32.00;;;;;;5028673;28;20293;-47
2021/04/15 12:20:06;;;;;;;1999.90;999.90;;;32.40;31.40;;;;;;5028913;28;20274;-47
2021/04/15 12:22:50;;;;;;;1999.90;999.90;;;32.30;32.10;;;;;;5028186;28;20223;-54
2021/04/15 12:25:34;;;;;;;1999.90;999.90;;;32.00;33.00;;;;;;5028783;28;20173;-55
2021/04/15 12:28:18;;;;;;;1999.90;999.90;;;31.60;33.70;;;;;;5030161;28;20166;-49
2021/04/15 12:30:46;;;;;;;1999.90;999.90;;;31.50;34.10;;;;;;5031568;28;20162;-53
2021/04/15 12:33:36;;;;;;;1999.90;999.90;;;31.40;34.20;;;;;;5032169;28;20298;-46
2021/04/15 12:36:23;;;;;;;1999.90;999.90;;;31.40;34.30;;;;;;5032023;28;20258;-47
2021/04/15 12:38:59;;;;;;;1999.90;999.90;;;31.40;34.30;;;;;;5032088;28;20162;-48
2021/04/15 12:41:27;;;;;;;1999.90;999.90;;;31.60;34.60;;;;;;5032096;28;20665;-48
2021/04/15 12:44:07;;;;;;;1999.90;999.90;;;31.60;34.70;;;;;;5031523;28;20181;-57
2021/04/15 12:46:35;;;;;;;1999.90;999.90;;;31.50;34.60;;;;;;5032115;28;20248;-47
2021/04/15 12:49:07;;;;;;;1999.90;999.90;;;31.50;34.90;;;;;;5031537;28;20254;-48
2021/04/15 12:51:43;;;;;;;1999.90;999.90;;;31.60;34.20;;;;;;5033237;28;20197;-51
2021/04/15 12:54:31;;;;;;;1999.90;999.90;;;31.70;34.50;;;;;;5032030;28;20290;-51
2021/04/15 12:57:01;;;;;;;1999.90;999.90;;;31.70;34.50;;;;;;5031954;28;20254;-49
2021/04/15 12:59:40;;;;;;;1999.90;999.90;;;31.40;34.80;;;;;;5031801;28;20632;-51
2021/04/15 13:02:15;;;;;;;1999.90;999.90;;;31.20;35.30;;;;;;5031295;28;20165;-43
2021/04/15 13:04:53;;;;;;;1999.90;999.90;;;31.20;35.50;;;;;;5031705;28;20166;-50